Tunkhannock, PA (18657)

12:38 AM EST on December 22, 2014 (GMT -0500)
Nittany Lane - Falls Township, PA | Change Station
CLOSE
Current Station
Personal Weather Station
Location: Dalton, PA
Elevation: 1083 ft
Nearby Weather Stations

Elev 1083 ft 41.49 °N, 75.83 °W | Updated 5 seconds ago

Overcast
Overcast
27.1 °F
Feels Like 27 °F
N
0.0
Wind Variable Wind from NNW
Gusts 0.0 mph

Today
High -- | Low -- °F
--% Chance of Precip.
Yesterday
High -- | Low -- °F
Precip. -- in
7:27 AM 4:37 PM
New Moon, 0% visible
Pressure 30.32 in
Visibility 10.0 miles
Clouds Overcast 2100 ft
Windchill 27 °F
Dew Point 11 °F
Humidity 51%
Rainfall 0.00 in
Snow Depth Not available.
UV 0 out of 12
Pollen .10 out of 12
Air Quality Not available.
Flu Activity Not available.
METAR KAVP 220454Z AUTO 00000KT 10SM OVC021 M01/M06 A3029 RMK AO2 SLP266 T10111061 400001017

More Conditions Fewer Conditions

Pressure 30.32 in
Visibility 10.0 miles
Clouds Overcast 2100 ft
Windchill 27 °F
Dew Point 11 °F
Humidity 51%
Rainfall 0.00 in
Snow Depth Not available.
UV 0 out of 12
Pollen .10 out of 12
Air Quality Not available.
Flu Activity Not available.
METAR KAVP 220454Z AUTO 00000KT 10SM OVC021 M01/M06 A3029 RMK AO2 SLP266 T10111061 400001017

More Conditions Fewer Conditions

10-Day Weather Forecast

Almanac

Astronomy

Dec. 22, 2014 Rise Set
Actual Time
Civil Twilight
Nautical Twilight
Astronomical Twilight
Moon
Length of Visible Light
Length of Day
Tomorrow will be .
, % of the Moon is Illuminated

Today's Extremes

State Highs State Lows

Community

WunderPhotos

Upload Photos

1,779,549 photos uploaded!

WunderBlogs® & News

Nearby

Air Quality

  Air Quality AQ Index Pollutant
Not available.

Snow Depth

Station Depth Elevation

Earthquake Activity

City Distance Mag. Time & Date
Minimum magnitude displayed is 2.5.

Coastal Water Temperatures

Place Temperature

Nearby Weather Stations